createdAt,value
2023-04-22T00:02:09.908Z,69.91
2023-04-22T00:04:37.931Z,67.89
2023-04-22T00:07:05.159Z,67.07
2023-04-22T00:09:32.192Z,67.06
2023-04-22T00:11:59.447Z,67.32
2023-04-22T00:14:26.532Z,67.44
2023-04-22T00:16:53.481Z,68.74
2023-04-22T00:19:23.292Z,67.37
2023-04-22T00:21:52.325Z,67.13
2023-04-22T00:24:43.385Z,68.91
2023-04-22T00:27:13.585Z,67.20
2023-04-22T00:29:41.129Z,68.87
2023-04-22T00:32:09.336Z,68.33
2023-04-22T00:34:36.634Z,68.71
2023-04-22T00:37:03.949Z,68.23
2023-04-22T00:39:41.165Z,68.18
2023-04-22T00:42:10.625Z,68.42
2023-04-22T00:44:38.011Z,69.18
2023-04-22T00:47:13.032Z,69.90
2023-04-22T02:00:14.312Z,72.09
2023-04-22T02:02:42.067Z,73.38
2023-04-22T02:05:10.043Z,73.91
2023-04-22T02:07:37.649Z,76.13
2023-04-22T02:10:06.539Z,76.64
2023-04-22T02:12:40.340Z,77.78
2023-04-22T02:15:08.534Z,76.14
2023-04-22T02:17:42.374Z,74.24
2023-04-22T02:20:13.176Z,74.76
2023-04-22T02:23:26.429Z,77.76
2023-04-22T02:25:55.029Z,77.79
2023-04-22T02:28:24.750Z,75.50
2023-04-22T02:30:52.020Z,75.23
2023-04-22T02:33:19.359Z,76.69
2023-04-22T02:35:46.891Z,78.47
2023-04-22T02:38:25.381Z,76.84
2023-04-22T02:40:53.092Z,76.74
2023-04-22T02:43:24.188Z,76.27
2023-04-22T02:45:51.594Z,78.13
2023-04-22T02:48:18.882Z,79.09
2023-04-22T02:50:50.663Z,78.45
2023-04-22T02:56:36.965Z,79.51
2023-04-22T02:59:04.117Z,78.84
2023-04-22T03:01:32.393Z,79.22
2023-04-22T03:04:00.078Z,81.16
2023-04-22T03:06:27.606Z,83.42
2023-04-22T03:08:55.014Z,83.81
2023-04-22T03:11:22.253Z,81.11
2023-04-22T03:13:49.665Z,82.42
2023-04-22T03:16:22.059Z,83.32
2023-04-22T03:18:52.111Z,84.71
2023-04-22T03:21:19.246Z,85.39
2023-04-22T03:23:46.790Z,82.86
2023-04-22T03:26:14.392Z,82.94
2023-04-22T03:28:44.084Z,84.99
2023-04-22T03:31:11.505Z,86.19
2023-04-22T03:33:40.222Z,84.46
2023-04-22T03:36:09.539Z,84.37
2023-04-22T03:38:36.703Z,82.65
2023-04-22T03:41:04.943Z,83.20
2023-04-22T03:43:33.020Z,83.67
2023-04-22T03:46:00.321Z,81.82
2023-04-22T03:48:29.558Z,79.30
2023-04-22T03:52:13.047Z,83.67
2023-04-22T03:54:40.399Z,84.81
2023-04-22T03:57:07.426Z,82.90
2023-04-22T03:59:36.809Z,79.71
2023-04-22T04:22:15.453Z,82.47
2023-04-22T04:24:46.239Z,83.42
2023-04-22T04:27:14.179Z,88.05
2023-04-22T04:29:43.149Z,90.51
2023-04-22T04:32:18.593Z,89.78
2023-04-22T04:34:46.075Z,90.34
2023-04-22T04:37:23.937Z,88.69
2023-04-22T04:40:35.496Z,86.58
2023-04-22T04:57:56.470Z,90.69
2023-04-22T05:00:23.368Z,92.84
2023-04-22T05:02:50.443Z,93.68
2023-04-22T05:05:17.405Z,91.96
2023-04-22T05:07:44.393Z,91.15
2023-04-22T05:10:13.928Z,92.52
2023-04-22T05:12:46.594Z,91.92
2023-04-22T05:15:16.268Z,91.57
2023-04-22T05:17:44.984Z,90.60
2023-04-22T05:20:17.957Z,87.37
2023-04-22T05:44:07.067Z,76.03
2023-04-22T05:46:34.164Z,73.16
2023-04-22T05:49:01.272Z,75.28
2023-04-22T05:51:28.244Z,74.38
2023-04-22T05:53:55.028Z,75.57
2023-04-22T05:56:21.934Z,77.76
2023-04-22T05:58:48.904Z,75.76
2023-04-22T06:01:15.633Z,72.73
2023-04-22T06:03:45.041Z,71.93
2023-04-22T06:06:12.292Z,73.41
2023-04-22T06:08:39.261Z,73.48
2023-04-22T06:11:06.254Z,70.70
2023-04-22T06:13:33.313Z,68.76
2023-04-22T06:16:01.778Z,67.77
2023-04-22T06:18:29.212Z,69.77
2023-04-22T06:20:56.789Z,69.09
2023-04-22T06:23:23.492Z,70.16
2023-04-22T06:25:50.338Z,72.82
2023-04-22T06:28:17.162Z,70.26
2023-04-22T06:30:43.929Z,63.75
2023-04-22T06:33:10.887Z,65.04
2023-04-22T06:35:37.842Z,65.43
2023-04-22T06:38:04.853Z,63.01
2023-04-22T06:40:31.628Z,63.87
2023-04-22T06:42:58.603Z,61.78
2023-04-22T06:45:25.763Z,62.61
2023-04-22T06:47:54.177Z,61.03
2023-04-22T06:50:21.207Z,61.30
2023-04-22T06:52:48.154Z,59.41
2023-04-22T06:55:14.984Z,67.19
2023-04-22T06:57:41.849Z,63.11
2023-04-22T07:00:09.139Z,57.22
2023-04-22T07:02:35.989Z,58.62
2023-04-22T07:05:03.068Z,57.01
2023-04-22T07:07:30.049Z,55.04
2023-04-22T07:09:56.824Z,55.49
2023-04-22T07:12:25.867Z,51.35
2023-04-22T07:14:52.783Z,53.94
2023-04-22T07:17:22.529Z,56.10
2023-04-22T07:19:49.775Z,52.72
2023-04-22T07:22:16.790Z,51.28
2023-04-22T07:24:43.623Z,52.89
2023-04-22T07:27:10.580Z,52.63
2023-04-22T07:29:37.550Z,50.48
2023-04-22T07:32:04.933Z,51.75
2023-04-22T07:34:31.935Z,51.73
2023-04-22T07:36:58.839Z,49.43
2023-04-22T07:39:25.773Z,49.08
2023-04-22T07:41:58.088Z,50.31
2023-04-22T07:44:24.797Z,50.52
2023-04-22T07:46:51.628Z,49.81
2023-04-22T07:49:18.523Z,49.90
2023-04-22T07:51:45.826Z,50.56
2023-04-22T07:54:12.758Z,49.55
2023-04-22T07:56:39.671Z,48.17
2023-04-22T07:59:07.291Z,50.51
2023-04-22T08:01:34.075Z,49.42
2023-04-22T08:04:01.422Z,49.29
2023-04-22T08:06:29.834Z,47.06
2023-04-22T08:08:59.357Z,47.78
2023-04-22T08:11:31.358Z,47.65
2023-04-22T08:13:58.477Z,49.39
2023-04-22T08:16:25.660Z,49.63
2023-04-22T08:18:56.600Z,46.88
2023-04-22T08:21:23.642Z,46.97
2023-04-22T08:23:50.331Z,47.50
2023-04-22T08:26:17.464Z,47.13
2023-04-22T08:28:44.436Z,45.88
2023-04-22T08:31:13.125Z,47.08
2023-04-22T08:33:41.828Z,44.97
2023-04-22T08:36:09.790Z,46.22
2023-04-22T08:38:36.792Z,45.19
2023-04-22T08:41:06.524Z,44.10
2023-04-22T08:43:34.704Z,44.01
2023-04-22T08:46:02.328Z,45.13
2023-04-22T08:48:32.678Z,45.28
2023-04-22T08:51:00.587Z,43.09
2023-04-22T08:53:27.596Z,42.91
2023-04-22T08:55:56.801Z,44.57
2023-04-22T08:58:24.506Z,42.40
2023-04-22T09:00:52.094Z,38.50
2023-04-22T09:03:20.042Z,39.25
2023-04-22T09:05:50.477Z,39.07
2023-04-22T09:08:17.732Z,37.89
2023-04-22T09:10:45.510Z,39.24
2023-04-22T09:13:14.498Z,38.65
2023-04-22T09:15:41.329Z,36.84
2023-04-22T09:18:10.855Z,35.94
2023-04-22T09:20:42.693Z,36.44
2023-04-22T09:23:12.290Z,37.07
2023-04-22T09:25:39.367Z,37.89
2023-04-22T09:28:06.518Z,38.07
2023-04-22T09:30:36.868Z,38.27
2023-04-22T09:33:07.825Z,36.59
2023-04-22T09:35:40.388Z,36.98
2023-04-22T09:38:09.197Z,35.93
2023-04-22T09:40:38.079Z,35.98
2023-04-22T09:43:08.181Z,38.29
2023-04-22T09:45:44.599Z,35.95
2023-04-22T09:48:17.918Z,34.68
2023-04-22T09:50:49.738Z,32.08
2023-04-22T09:53:18.665Z,33.10
2023-04-22T09:55:51.846Z,35.27
2023-04-22T09:58:21.038Z,35.17
2023-04-22T10:00:54.321Z,35.71
2023-04-22T10:03:22.079Z,37.59
2023-04-22T10:05:49.175Z,34.82
2023-04-22T10:08:17.460Z,33.27
2023-04-22T10:10:45.651Z,32.96
2023-04-22T10:13:12.596Z,32.93
2023-04-22T10:15:55.223Z,32.80
2023-04-22T10:18:24.612Z,32.79
2023-04-22T10:20:54.052Z,34.42
2023-04-22T10:23:23.967Z,34.43
2023-04-22T10:25:54.330Z,34.38
2023-04-22T10:28:22.842Z,32.38
2023-04-22T10:30:50.782Z,31.82
2023-04-22T10:33:24.234Z,30.76
2023-04-22T10:36:10.939Z,31.17
2023-04-22T10:38:39.836Z,33.35
2023-04-22T10:41:07.406Z,31.99
2023-04-22T10:43:44.844Z,32.52
2023-04-22T10:46:33.271Z,32.49
2023-04-22T10:49:07.676Z,31.42
2023-04-22T10:51:41.175Z,30.31
2023-04-22T10:54:37.780Z,29.76
2023-04-22T10:57:11.059Z,29.56
2023-04-22T10:59:54.025Z,29.13
2023-04-22T11:02:22.817Z,28.71
2023-04-22T11:04:51.274Z,28.44
2023-04-22T11:07:22.999Z,28.07
2023-04-22T11:10:08.509Z,29.83
2023-04-22T11:12:35.692Z,29.28
2023-04-22T11:15:23.214Z,28.82
2023-04-22T11:17:56.578Z,28.61
2023-04-22T11:20:28.453Z,27.51
2023-04-22T11:22:57.021Z,28.10
2023-04-22T11:25:25.452Z,30.48
2023-04-22T11:27:54.395Z,31.03
2023-04-22T11:30:26.688Z,28.26
2023-04-22T11:33:02.314Z,28.71
2023-04-22T11:35:38.986Z,29.68
2023-04-22T11:38:09.616Z,28.55
2023-04-22T11:40:40.525Z,29.73
2023-04-22T11:43:10.326Z,28.16
2023-04-22T11:48:56.817Z,29.30
2023-04-22T11:54:39.746Z,28.56
2023-04-22T11:57:11.987Z,31.04
2023-04-22T11:59:39.116Z,35.16
2023-04-22T12:02:07.875Z,36.67
2023-04-22T12:04:42.118Z,36.38
2023-04-22T12:07:09.007Z,36.83
2023-04-22T12:09:35.791Z,36.08
2023-04-22T12:12:05.881Z,35.86
2023-04-22T12:14:36.294Z,35.11
2023-04-22T12:17:09.774Z,35.81
2023-04-22T12:19:38.023Z,35.49
2023-04-22T12:22:23.571Z,35.31
2023-04-22T12:24:53.153Z,35.48
2023-04-22T12:27:22.878Z,35.38
2023-04-22T12:29:59.010Z,35.83
2023-04-22T12:32:34.798Z,34.76
2023-04-22T12:35:02.124Z,34.39
2023-04-22T12:37:31.626Z,33.81
2023-04-22T12:40:31.096Z,34.08
2023-04-22T12:43:12.166Z,33.33
2023-04-22T12:45:39.834Z,32.85
2023-04-22T12:48:09.464Z,32.97
2023-04-22T12:51:11.520Z,32.08
2023-04-22T12:53:52.584Z,32.63
2023-04-22T12:56:19.405Z,32.32
2023-04-22T12:58:47.501Z,32.20
2023-04-22T13:01:24.054Z,31.30
2023-04-22T13:04:40.933Z,31.87
2023-04-22T13:07:17.723Z,32.59
2023-04-22T13:10:00.251Z,33.22
2023-04-22T13:12:30.122Z,32.71
2023-04-22T13:15:02.849Z,32.91
2023-04-22T13:17:30.236Z,33.59
2023-04-22T13:20:01.004Z,33.79
2023-04-22T13:22:28.125Z,33.08
2023-04-22T13:24:54.985Z,33.44
2023-04-22T13:27:22.058Z,34.04
2023-04-22T13:29:49.007Z,33.63
2023-04-22T13:32:16.038Z,34.22
2023-04-22T13:34:42.974Z,33.40
2023-04-22T13:46:17.391Z,33.12
2023-04-22T13:54:02.756Z,33.48
2023-04-22T14:12:15.611Z,34.48
2023-04-22T14:14:44.868Z,36.71
2023-04-22T14:17:12.538Z,37.18
2023-04-22T14:19:49.808Z,37.41
2023-04-22T14:22:38.151Z,36.32
2023-04-22T14:54:32.707Z,37.96
2023-04-22T14:56:59.559Z,38.24
2023-04-22T14:59:28.105Z,38.07
2023-04-22T15:04:39.467Z,39.08
2023-04-22T15:07:16.631Z,39.42
2023-04-22T15:09:44.494Z,40.24
2023-04-22T15:12:21.059Z,40.51
2023-04-22T15:17:31.588Z,40.66
2023-04-22T15:20:01.144Z,41.58
2023-04-22T15:22:50.475Z,41.63
2023-04-22T15:25:18.436Z,42.83
2023-04-22T15:27:45.555Z,42.36
2023-04-22T15:30:15.347Z,42.81
2023-04-22T15:32:42.929Z,42.87
2023-04-22T15:35:16.048Z,43.05
2023-04-22T15:37:42.837Z,43.01
2023-04-22T15:40:10.312Z,43.30
2023-04-22T15:42:54.026Z,44.21
2023-04-22T15:46:16.927Z,45.14
2023-04-22T15:48:47.378Z,44.32
2023-04-22T15:51:18.808Z,44.30
2023-04-22T16:13:34.190Z,46.00
2023-04-22T16:16:04.076Z,45.30
2023-04-22T16:18:31.570Z,46.80
2023-04-22T16:21:38.730Z,47.99
2023-04-22T16:24:05.997Z,49.01
2023-04-22T16:26:35.540Z,50.12
2023-04-22T16:29:05.571Z,50.43
2023-04-22T16:31:35.517Z,50.57
2023-04-22T16:34:02.425Z,50.91
2023-04-22T16:36:32.677Z,52.05
2023-04-22T16:39:17.989Z,52.19
2023-04-22T16:41:44.987Z,52.56
2023-04-22T16:44:12.030Z,52.77
2023-04-22T16:46:39.025Z,53.67
2023-04-22T16:49:10.543Z,53.91
2023-04-22T16:51:41.018Z,54.39
2023-04-22T16:54:08.075Z,54.61
2023-04-22T16:56:40.299Z,55.24
2023-04-22T16:59:07.103Z,55.96
2023-04-22T17:01:34.214Z,56.18
2023-04-22T17:04:04.305Z,57.39
2023-04-22T17:06:31.408Z,57.78
2023-04-22T17:09:00.036Z,58.37
2023-04-22T17:11:26.961Z,58.10
2023-04-22T17:13:53.998Z,57.52
2023-04-22T17:16:21.128Z,57.34
2023-04-22T17:18:48.153Z,57.33
2023-04-22T17:21:16.747Z,57.44
2023-04-22T17:23:44.862Z,57.53
2023-04-22T17:26:11.826Z,57.17
2023-04-22T17:28:38.679Z,58.46
2023-04-22T17:31:05.755Z,58.10
2023-04-22T17:33:33.165Z,58.56
2023-04-22T17:36:02.093Z,58.87
2023-04-22T17:38:28.891Z,60.64
2023-04-22T17:40:56.276Z,60.56
2023-04-22T17:43:24.256Z,60.26
2023-04-22T17:45:52.486Z,60.23
2023-04-22T17:48:20.106Z,60.67
2023-04-22T17:50:47.551Z,60.21
2023-04-22T17:53:14.364Z,59.99
2023-04-22T17:55:41.288Z,59.95
2023-04-22T17:58:11.158Z,59.56
2023-04-22T18:00:38.202Z,60.24
2023-04-22T18:03:06.137Z,60.42
2023-04-22T18:05:33.023Z,60.21
2023-04-22T18:08:04.230Z,60.51
2023-04-22T18:10:31.560Z,59.44
2023-04-22T18:13:01.578Z,60.06
2023-04-22T18:15:28.415Z,59.37
2023-04-22T18:17:55.439Z,59.72
2023-04-22T18:20:22.479Z,59.63
2023-04-22T18:22:52.147Z,60.52
2023-04-22T18:25:19.145Z,60.36
2023-04-22T18:27:46.560Z,59.50
2023-04-22T18:30:13.774Z,58.82
2023-04-22T18:32:41.074Z,58.42
2023-04-22T18:35:08.523Z,58.58
2023-04-22T18:37:35.180Z,58.83
2023-04-22T18:40:02.862Z,59.10
2023-04-22T18:42:30.121Z,59.26
2023-04-22T18:44:56.943Z,59.69
2023-04-22T18:47:23.992Z,60.90
2023-04-22T18:49:53.738Z,61.96
2023-04-22T18:52:28.628Z,59.34
2023-04-22T18:54:58.952Z,58.81
2023-04-22T18:57:26.783Z,59.74
2023-04-22T18:59:53.812Z,61.05
2023-04-22T19:05:12.266Z,64.96
2023-04-22T19:07:45.273Z,66.86
2023-04-22T19:10:12.521Z,69.26
2023-04-22T19:12:39.453Z,71.21
2023-04-22T19:15:07.401Z,73.85
2023-04-22T19:17:36.175Z,75.02
2023-04-22T19:20:05.334Z,74.78
2023-04-22T19:22:32.485Z,75.58
2023-04-22T19:24:59.498Z,75.50
2023-04-22T19:27:26.899Z,76.03
2023-04-22T19:29:54.056Z,75.52
2023-04-22T19:32:21.416Z,76.61
2023-04-22T19:34:49.927Z,76.13
2023-04-22T19:37:17.628Z,76.69
2023-04-22T19:39:44.650Z,77.74
2023-04-22T19:42:11.837Z,78.29
2023-04-22T19:44:41.386Z,78.68
2023-04-22T19:47:08.349Z,79.57
2023-04-22T19:49:35.338Z,80.29
2023-04-22T19:52:03.202Z,81.60
2023-04-22T19:54:30.956Z,81.46
2023-04-22T19:56:58.672Z,82.09
2023-04-22T19:59:28.414Z,82.41
2023-04-22T20:01:55.597Z,82.37
2023-04-22T20:04:22.897Z,83.93
2023-04-22T20:06:51.699Z,83.81
2023-04-22T20:09:18.905Z,84.30
2023-04-22T20:11:46.608Z,84.44
2023-04-22T20:14:14.240Z,82.96
2023-04-22T20:16:42.401Z,82.67
2023-04-22T20:19:10.078Z,82.91
2023-04-22T20:21:40.005Z,81.64
2023-04-22T20:24:08.037Z,81.64
2023-04-22T20:26:35.243Z,81.27
2023-04-22T20:29:03.181Z,81.64
2023-04-22T20:31:30.561Z,82.61
2023-04-22T20:34:00.376Z,83.15
2023-04-22T20:36:27.661Z,81.09
2023-04-22T20:38:56.317Z,79.01
2023-04-22T20:41:24.652Z,79.55
2023-04-22T20:43:52.668Z,78.91
2023-04-22T20:46:22.689Z,79.61
2023-04-22T20:48:49.740Z,80.19
2023-04-22T20:51:16.689Z,79.51
2023-04-22T20:53:44.196Z,78.05
2023-04-22T20:56:11.277Z,78.57
2023-04-22T20:58:38.428Z,80.94
2023-04-22T21:01:07.822Z,81.01
2023-04-22T21:03:37.318Z,81.86
2023-04-22T21:06:05.227Z,82.32
2023-04-22T21:08:35.312Z,81.34
2023-04-22T21:11:02.138Z,83.83
2023-04-22T21:13:29.532Z,84.12
2023-04-22T21:16:04.628Z,83.98
2023-04-22T21:18:33.944Z,84.47
2023-04-22T21:21:04.776Z,85.70
2023-04-22T21:23:32.314Z,86.33
2023-04-22T21:26:01.540Z,88.28
2023-04-22T21:28:29.208Z,87.26
2023-04-22T21:30:56.642Z,87.09
2023-04-22T21:33:25.397Z,86.49
2023-04-22T21:35:52.583Z,85.29
2023-04-22T21:38:20.082Z,86.65
2023-04-22T21:40:50.486Z,86.77
2023-04-22T21:43:17.313Z,87.41
2023-04-22T21:45:44.072Z,88.17
2023-04-22T21:48:11.118Z,87.59
2023-04-22T21:50:37.995Z,89.68
2023-04-22T21:53:04.904Z,90.78
2023-04-22T21:55:32.273Z,90.35
2023-04-22T21:57:59.062Z,89.82
2023-04-22T22:00:26.277Z,88.60
2023-04-22T22:02:53.540Z,90.91
2023-04-22T22:05:20.648Z,89.97
2023-04-22T22:07:47.696Z,91.30
2023-04-22T22:10:18.633Z,91.98
2023-04-22T22:12:47.090Z,91.40
2023-04-22T22:15:16.390Z,91.13
2023-04-22T22:17:44.611Z,91.17
2023-04-22T22:20:26.700Z,90.64
2023-04-22T22:22:53.985Z,90.85
2023-04-22T22:25:20.759Z,90.79
2023-04-22T22:27:49.375Z,92.00
2023-04-22T22:30:17.677Z,89.52
2023-04-22T22:32:44.798Z,91.67
2023-04-22T22:35:11.657Z,90.04
2023-04-22T22:37:38.933Z,89.48
2023-04-22T22:40:06.414Z,89.79
2023-04-22T22:42:33.226Z,89.38
2023-04-22T22:45:00.217Z,89.56
2023-04-22T22:47:28.318Z,90.76
2023-04-22T22:49:55.097Z,90.85
2023-04-22T22:52:22.603Z,90.65
2023-04-22T22:54:50.350Z,91.32
2023-04-22T22:57:17.193Z,91.17
2023-04-22T22:59:44.250Z,90.75
2023-04-22T23:02:11.494Z,88.95
2023-04-22T23:04:39.552Z,88.74
2023-04-22T23:07:06.813Z,90.56
2023-04-22T23:09:33.640Z,89.69
2023-04-22T23:12:01.002Z,90.38
2023-04-22T23:14:28.306Z,89.69
2023-04-22T23:16:55.272Z,91.30
2023-04-22T23:19:22.708Z,90.60
2023-04-22T23:21:49.880Z,90.18
2023-04-22T23:24:17.359Z,90.34
2023-04-22T23:26:44.404Z,87.19
2023-04-22T23:29:11.573Z,88.76
2023-04-22T23:31:40.393Z,88.35
2023-04-22T23:34:07.767Z,87.92
2023-04-22T23:36:38.873Z,89.72
2023-04-22T23:39:06.907Z,89.48
2023-04-22T23:41:34.157Z,89.55
2023-04-22T23:44:01.081Z,88.78
2023-04-22T23:46:27.968Z,87.75
2023-04-22T23:48:55.008Z,89.52
2023-04-22T23:51:22.179Z,89.52
2023-04-22T23:53:48.979Z,89.57
2023-04-22T23:56:20.295Z,89.72
2023-04-22T23:58:47.797Z,90.47
